Time;durP1;ratioP1;P1;durP2;ratioP2;P2;SDS_P1;SDS_P2;PMS_P1;PMS_P2;Temp;Humidity;BMP_temperature;BMP_pressure;BME280_temperature;BME280_humidity;BME280_pressure;Samples;Min_cycle;Max_cycle;Signal;HPM_P1;HPM_P2
2022/04/04 00:03:22;;;;;;;13.33;12.03;;;2.60;99.90;;;;;;10384901;28;20221;-83
2022/04/04 00:08:24;;;;;;;14.93;13.50;;;2.60;99.90;;;;;;10400275;28;20215;-82
2022/04/04 00:13:28;;;;;;;13.67;12.43;;;2.50;99.90;;;;;;10388139;28;20222;-82
2022/04/04 00:18:31;;;;;;;13.43;12.13;;;2.50;99.90;;;;;;10414808;28;20205;-82
2022/04/04 00:23:33;;;;;;;10.37;9.37;;;2.50;99.90;;;;;;10407106;28;20775;-83
2022/04/04 00:28:37;;;;;;;13.13;11.83;;;2.40;99.90;;;;;;10429058;28;20249;-82
2022/04/04 00:33:39;;;;;;;13.30;12.00;;;2.40;99.90;;;;;;10402861;28;20246;-83
2022/04/04 00:38:41;;;;;;;13.37;12.17;;;2.30;99.90;;;;;;10427320;28;20236;-82
2022/04/04 00:43:46;;;;;;;13.13;11.80;;;2.30;99.90;;;;;;10404214;28;20245;-83
2022/04/04 00:48:48;;;;;;;13.30;11.90;;;2.30;99.90;;;;;;10403878;28;20183;-83
2022/04/04 00:53:51;;;;;;;12.40;11.27;;;2.40;99.90;;;;;;10405411;28;20280;-83
2022/04/04 00:58:54;;;;;;;12.00;10.80;;;2.40;99.90;;;;;;10402479;28;20221;-82
2022/04/04 01:03:56;;;;;;;12.50;11.20;;;2.50;99.90;;;;;;10404771;28;20199;-83
2022/04/04 01:08:59;;;;;;;12.00;10.90;;;2.40;99.90;;;;;;10392819;28;20200;-83
2022/04/04 01:14:02;;;;;;;12.53;10.40;;;2.30;99.90;;;;;;10438236;28;20189;-82
2022/04/04 01:19:04;;;;;;;12.20;11.03;;;2.30;99.90;;;;;;10420014;28;20209;-82
2022/04/04 01:24:08;;;;;;;13.03;11.83;;;2.30;99.90;;;;;;10387197;28;20233;-83
2022/04/04 01:29:12;;;;;;;12.70;11.40;;;2.30;99.90;;;;;;10406890;28;20308;-83
2022/04/04 01:34:14;;;;;;;12.93;11.67;;;2.30;99.90;;;;;;10392711;28;20288;-83
2022/04/04 01:39:17;;;;;;;13.60;11.03;;;2.30;99.90;;;;;;10391402;28;20725;-83
2022/04/04 01:44:20;;;;;;;12.67;11.00;;;2.30;99.90;;;;;;10407098;28;20335;-83
2022/04/04 01:49:22;;;;;;;12.20;11.00;;;2.30;99.90;;;;;;10409705;28;20628;-83
2022/04/04 01:54:24;;;;;;;8.67;7.90;;;2.20;99.90;;;;;;10406700;28;20263;-83
2022/04/04 01:59:28;;;;;;;12.70;11.03;;;2.20;99.90;;;;;;10394116;28;20253;-82
2022/04/04 02:04:30;;;;;;;11.73;10.60;;;2.20;99.90;;;;;;10417633;28;20202;-83
2022/04/04 02:09:33;;;;;;;11.87;10.53;;;2.10;99.90;;;;;;10418412;28;20308;-82
2022/04/04 02:14:37;;;;;;;11.33;10.33;;;2.10;99.90;;;;;;10380540;28;20202;-82
2022/04/04 02:19:40;;;;;;;10.60;9.70;;;2.10;99.90;;;;;;10392114;28;20229;-82
2022/04/04 02:24:55;;;;;;;11.00;9.87;;;2.00;99.90;;;;;;10372890;28;20734;-82
2022/04/04 02:30:00;;;;;;;11.23;10.13;;;2.00;99.90;;;;;;10395083;28;20296;-82
2022/04/04 02:35:02;;;;;;;11.43;10.33;;;2.00;99.90;;;;;;10415367;28;20281;-82
2022/04/04 02:40:05;;;;;;;11.00;10.10;;;1.90;99.90;;;;;;10398084;28;20230;-81
2022/04/04 02:45:09;;;;;;;10.33;9.43;;;1.80;99.90;;;;;;10426620;28;20197;-83
2022/04/04 02:50:12;;;;;;;11.50;10.50;;;1.70;99.90;;;;;;10399735;28;20301;-83
2022/04/04 03:00:37;;;;;;;11.07;10.17;;;1.80;99.90;;;;;;10405457;28;20241;-83
2022/04/04 03:05:39;;;;;;;11.20;10.13;;;1.70;99.90;;;;;;10390589;28;20288;-83
2022/04/04 03:10:41;;;;;;;11.60;10.40;;;1.80;99.90;;;;;;10422687;28;20233;-82
2022/04/04 03:15:45;;;;;;;11.20;10.20;;;1.80;99.90;;;;;;10405699;28;20225;-83
2022/04/04 03:20:47;;;;;;;12.53;11.23;;;1.80;99.90;;;;;;10423139;22;20660;-80
2022/04/04 03:25:50;;;;;;;11.47;10.33;;;1.80;99.90;;;;;;10502349;28;20200;-79
2022/04/04 03:30:54;;;;;;;9.20;8.40;;;1.70;99.90;;;;;;10501165;28;20233;-80
2022/04/04 03:35:56;;;;;;;12.37;11.10;;;1.70;99.90;;;;;;10505096;28;20565;-79
2022/04/04 03:40:58;;;;;;;11.70;10.63;;;1.70;99.90;;;;;;10497098;28;20315;-79
2022/04/04 03:46:02;;;;;;;14.67;13.23;;;1.70;99.90;;;;;;10492278;28;20197;-79
2022/04/04 03:51:05;;;;;;;13.30;12.10;;;1.70;99.90;;;;;;10478769;28;20219;-79
2022/04/04 03:56:07;;;;;;;13.87;12.47;;;1.60;99.90;;;;;;10486325;28;20288;-80
2022/04/04 04:01:11;;;;;;;12.60;11.40;;;1.60;99.90;;;;;;10492459;28;20228;-81
2022/04/04 04:06:14;;;;;;;12.17;11.10;;;1.60;99.90;;;;;;10495986;28;20546;-79
2022/04/04 04:11:17;;;;;;;12.30;11.20;;;1.60;99.90;;;;;;10500666;28;20240;-79
2022/04/04 04:16:23;;;;;;;12.17;10.97;;;1.60;99.90;;;;;;10478405;28;20201;-79
2022/04/04 04:21:26;;;;;;;11.87;10.67;;;1.50;99.90;;;;;;10491752;28;20368;-81
2022/04/04 04:26:28;;;;;;;13.93;12.63;;;1.40;99.90;;;;;;10509577;28;20200;-80
2022/04/04 04:31:32;;;;;;;14.77;12.20;;;1.40;99.90;;;;;;10514695;28;20263;-80
2022/04/04 04:36:36;;;;;;;13.63;12.33;;;1.40;99.90;;;;;;10505228;28;20201;-82
2022/04/04 04:41:38;;;;;;;13.03;11.73;;;1.40;99.90;;;;;;10463923;28;20228;-82
2022/04/04 04:46:45;;;;;;;12.77;11.53;;;1.40;99.90;;;;;;10467838;28;20264;-82
2022/04/04 04:51:50;;;;;;;11.40;10.40;;;1.40;99.90;;;;;;10487289;28;20222;-82
2022/04/04 04:56:52;;;;;;;11.70;10.50;;;1.40;99.90;;;;;;10480411;28;20759;-80
2022/04/04 05:01:56;;;;;;;11.20;10.00;;;1.40;99.90;;;;;;10474383;28;20225;-82
2022/04/04 05:06:58;;;;;;;11.50;10.40;;;1.40;99.90;;;;;;10468228;28;20197;-82
2022/04/04 05:12:00;;;;;;;10.57;9.43;;;1.40;99.90;;;;;;10468979;28;20244;-81
2022/04/04 05:17:05;;;;;;;13.07;10.67;;;1.40;99.90;;;;;;10463171;28;20202;-81
2022/04/04 05:22:09;;;;;;;10.33;9.50;;;1.40;99.90;;;;;;10459928;28;20384;-79
2022/04/04 05:27:11;;;;;;;11.27;10.23;;;1.40;99.90;;;;;;10474199;28;20269;-79
2022/04/04 05:32:15;;;;;;;10.40;9.50;;;1.50;99.90;;;;;;10496125;28;20303;-79
2022/04/04 05:37:17;;;;;;;11.10;10.20;;;1.50;99.90;;;;;;10464446;28;20205;-79
2022/04/04 05:42:19;;;;;;;10.57;9.60;;;1.60;99.90;;;;;;10474723;28;20224;-79
2022/04/04 05:47:23;;;;;;;11.37;10.27;;;1.60;99.90;;;;;;10485081;28;20207;-79
2022/04/04 05:52:25;;;;;;;11.40;10.20;;;1.60;99.90;;;;;;10488867;28;20244;-80
2022/04/04 05:57:29;;;;;;;12.03;9.97;;;1.70;99.90;;;;;;10465385;28;20629;-79
2022/04/04 06:02:39;;;;;;;12.87;11.73;;;1.70;99.90;;;;;;10485692;28;20286;-79
2022/04/04 06:07:42;;;;;;;11.33;10.33;;;1.80;99.90;;;;;;10470058;28;20294;-79
2022/04/04 06:12:44;;;;;;;14.00;11.47;;;2.00;99.90;;;;;;10492752;28;20228;-79
2022/04/04 06:17:48;;;;;;;11.83;10.60;;;2.00;99.90;;;;;;10493463;28;20463;-80
2022/04/04 06:22:50;;;;;;;10.90;9.90;;;2.10;99.90;;;;;;10480139;28;20252;-80
2022/04/04 06:27:52;;;;;;;12.67;11.50;;;2.30;99.90;;;;;;10453420;28;20200;-80
2022/04/04 06:32:56;;;;;;;11.93;10.80;;;2.30;99.90;;;;;;10464180;28;20213;-81
2022/04/04 06:38:00;;;;;;;12.87;10.33;;;2.40;99.90;;;;;;10460921;28;20288;-81
2022/04/04 06:43:02;;;;;;;10.67;9.57;;;2.50;99.90;;;;;;10471879;28;20253;-81
2022/04/04 06:48:06;;;;;;;8.70;7.90;;;2.50;99.90;;;;;;10466952;28;20287;-81
2022/04/04 06:53:09;;;;;;;9.30;8.40;;;2.60;99.90;;;;;;10470032;28;20306;-80
2022/04/04 06:58:11;;;;;;;8.50;7.70;;;2.70;99.90;;;;;;10454985;28;20284;-81
2022/04/04 07:03:15;;;;;;;8.80;8.00;;;2.90;99.90;;;;;;10442001;28;20247;-81
2022/04/04 07:08:17;;;;;;;8.43;7.63;;;2.90;99.90;;;;;;10462026;28;20222;-79
2022/04/04 07:13:19;;;;;;;9.13;8.23;;;3.00;99.90;;;;;;10481455;28;20224;-80
2022/04/04 07:18:23;;;;;;;7.43;6.83;;;3.10;99.90;;;;;;10474283;28;20199;-80
2022/04/04 07:23:25;;;;;;;10.03;9.03;;;3.30;99.90;;;;;;10450747;28;20234;-80
2022/04/04 07:28:27;;;;;;;8.93;8.13;;;3.40;99.90;;;;;;10450665;28;20209;-81
2022/04/04 07:33:30;;;;;;;8.33;7.63;;;3.60;99.90;;;;;;10463450;28;20226;-80
2022/04/04 07:38:33;;;;;;;9.30;8.60;;;3.80;99.90;;;;;;10467152;28;20327;-80
2022/04/04 07:43:35;;;;;;;8.47;7.67;;;3.90;99.90;;;;;;10462318;28;20221;-80
2022/04/04 07:48:41;;;;;;;9.10;8.23;;;4.00;99.90;;;;;;10462219;28;20681;-80
2022/04/04 07:53:44;;;;;;;9.43;8.43;;;4.20;99.90;;;;;;10462191;28;20205;-80
2022/04/04 07:58:46;;;;;;;9.17;8.27;;;4.30;99.90;;;;;;10473967;28;20224;-80
2022/04/04 08:03:49;;;;;;;10.30;7.90;;;4.50;99.90;;;;;;10468970;28;20335;-80
2022/04/04 08:08:54;;;;;;;9.00;8.30;;;4.60;99.90;;;;;;10468011;28;20460;-80
2022/04/04 08:13:56;;;;;;;9.50;8.60;;;4.80;99.90;;;;;;10462087;28;20229;-80
2022/04/04 08:19:00;;;;;;;8.30;7.60;;;4.90;99.90;;;;;;10466298;28;20197;-80
2022/04/04 08:24:02;;;;;;;9.00;8.20;;;5.10;99.90;;;;;;10467985;28;20259;-80
2022/04/04 08:29:04;;;;;;;8.60;7.70;;;5.30;99.90;;;;;;10462359;28;20205;-80
2022/04/04 08:34:08;;;;;;;8.40;7.53;;;5.40;99.90;;;;;;10465979;28;20224;-80
2022/04/04 08:39:11;;;;;;;9.70;8.80;;;5.60;99.90;;;;;;10464834;28;20264;-80
2022/04/04 08:44:16;;;;;;;9.40;8.70;;;5.80;99.90;;;;;;10461165;28;20330;-81
2022/04/04 08:49:19;;;;;;;9.57;8.87;;;6.00;99.90;;;;;;10458677;28;20200;-81
2022/04/04 08:54:22;;;;;;;8.97;8.17;;;6.20;99.90;;;;;;10481024;28;20198;-81
2022/04/04 08:59:24;;;;;;;8.57;7.80;;;6.40;96.30;;;;;;10459483;28;20208;-81
2022/04/04 09:04:27;;;;;;;7.60;6.97;;;6.50;94.40;;;;;;10456614;28;20248;-80
2022/04/04 09:09:40;;;;;;;8.13;7.43;;;6.50;98.80;;;;;;10458007;28;20296;-80
2022/04/04 09:14:46;;;;;;;7.80;7.20;;;6.70;96.60;;;;;;10458032;28;20192;-80
2022/04/04 09:19:49;;;;;;;8.70;8.00;;;6.70;93.90;;;;;;10476360;22;20225;-82
2022/04/04 09:24:55;;;;;;;8.57;7.77;;;6.90;97.60;;;;;;10412288;28;20218;-83
2022/04/04 09:29:59;;;;;;;7.00;6.20;;;7.10;93.10;;;;;;10425358;28;20213;-83
2022/04/04 09:35:08;;;;;;;8.40;7.70;;;7.10;93.70;;;;;;10403346;28;20276;-82
2022/04/04 09:40:14;;;;;;;8.03;7.30;;;7.30;97.60;;;;;;10394766;28;20233;-84
2022/04/04 09:45:16;;;;;;;7.03;6.43;;;7.60;93.70;;;;;;10389276;28;20589;-83
2022/04/04 09:50:35;;;;;;;8.67;7.13;;;7.80;91.00;;;;;;10382422;28;20218;-82
2022/04/04 09:55:39;;;;;;;7.43;6.90;;;8.10;92.70;;;;;;10379850;28;20297;-84
2022/04/04 10:00:44;;;;;;;7.40;6.80;;;8.40;92.30;;;;;;10386199;28;20280;-83
2022/04/04 10:05:51;;;;;;;7.17;6.60;;;8.70;90.70;;;;;;10368675;28;20205;-83
2022/04/04 10:10:55;;;;;;;9.07;8.27;;;9.00;86.60;;;;;;10390485;28;20225;-82
2022/04/04 10:15:58;;;;;;;7.47;6.87;;;9.00;93.00;;;;;;10370702;28;20206;-83
2022/04/04 10:21:02;;;;;;;7.60;7.10;;;8.80;91.90;;;;;;10393070;28;20317;-83
2022/04/04 10:26:06;;;;;;;8.80;7.53;;;8.60;87.60;;;;;;10379786;28;20275;-83
2022/04/04 10:31:13;;;;;;;8.60;7.80;;;8.50;93.20;;;;;;10396493;28;20221;-83
2022/04/04 10:36:22;;;;;;;8.10;7.50;;;8.50;93.00;;;;;;10386241;28;20506;-84
2022/04/04 10:41:30;;;;;;;8.10;7.37;;;8.50;92.60;;;;;;10399271;28;20218;-84
2022/04/04 10:46:32;;;;;;;24.23;10.50;;;8.60;92.00;;;;;;10380066;28;20674;-82
2022/04/04 10:51:37;;;;;;;8.07;7.30;;;8.50;89.70;;;;;;10379649;28;20229;-82
2022/04/04 10:56:40;;;;;;;8.57;7.87;;;8.20;92.50;;;;;;10397276;28;20201;-81
2022/04/04 11:01:44;;;;;;;8.00;7.40;;;7.90;91.60;;;;;;10382713;28;20674;-82
2022/04/04 11:12:24;;;;;;;6.63;6.13;;;7.60;93.00;;;;;;10279608;28;20223;-83
2022/04/04 11:17:33;;;;;;;7.37;6.67;;;7.50;97.70;;;;;;10339818;28;20249;-82
2022/04/04 11:22:39;;;;;;;6.57;5.97;;;7.50;92.70;;;;;;10367390;28;20233;-82
2022/04/04 11:27:41;;;;;;;6.90;6.33;;;7.40;96.80;;;;;;10415460;28;20202;-82
2022/04/04 11:33:07;;;;;;;7.67;7.07;;;7.40;95.80;;;;;;10403508;28;20264;-81
2022/04/04 11:38:12;;;;;;;7.23;6.63;;;7.30;96.10;;;;;;10384565;28;20229;-83
2022/04/04 11:43:16;;;;;;;7.77;7.17;;;7.40;93.80;;;;;;10376116;28;20233;-82
2022/04/04 11:48:23;;;;;;;7.30;6.60;;;7.40;99.00;;;;;;10387487;28;20198;-83
2022/04/04 11:53:35;;;;;;;7.10;6.53;;;7.50;99.50;;;;;;10386340;28;20236;-83
2022/04/04 11:58:47;;;;;;;7.60;6.80;;;7.60;93.10;;;;;;10403675;28;20297;-83
2022/04/04 12:03:51;;;;;;;7.30;6.80;;;7.70;91.90;;;;;;10403740;28;20222;-82
2022/04/04 12:08:57;;;;;;;5.90;5.50;;;7.70;91.70;;;;;;10383547;28;20202;-82
2022/04/04 12:14:00;;;;;;;7.03;6.43;;;7.70;92.50;;;;;;10395339;28;20210;-82
2022/04/04 12:19:04;;;;;;;6.33;5.83;;;7.70;96.80;;;;;;10412468;28;20271;-82
2022/04/04 12:29:27;;;;;;;6.80;6.20;;;7.90;95.60;;;;;;10386759;28;20693;-83
2022/04/04 12:34:30;;;;;;;6.43;5.90;;;8.00;94.90;;;;;;10401970;28;20252;-83
2022/04/04 12:39:33;;;;;;;7.03;6.43;;;7.90;94.70;;;;;;10392113;28;20628;-84
2022/04/04 12:44:35;;;;;;;7.47;6.80;;;8.00;96.50;;;;;;10393526;28;20641;-83
2022/04/04 12:49:39;;;;;;;7.20;6.60;;;8.10;94.90;;;;;;10397826;28;20718;-84
2022/04/04 12:54:42;;;;;;;8.30;7.60;;;8.10;96.70;;;;;;10395068;28;20229;-83
2022/04/04 12:59:49;;;;;;;7.77;7.07;;;8.20;93.80;;;;;;10380177;28;20596;-84
2022/04/04 13:05:12;;;;;;;9.60;8.70;;;8.20;97.20;;;;;;10376988;28;20221;-84
2022/04/04 13:10:37;;;;;;;7.83;7.13;;;8.30;96.20;;;;;;10381995;28;20317;-83
2022/04/04 13:15:42;;;;;;;8.70;8.00;;;8.40;93.50;;;;;;10378903;28;20208;-82
2022/04/04 13:20:44;;;;;;;8.10;7.40;;;8.40;93.80;;;;;;10401411;28;20305;-84
2022/04/04 13:25:50;;;;;;;8.53;7.83;;;8.40;93.50;;;;;;10397856;28;20228;-85
2022/04/04 13:30:52;;;;;;;8.10;6.93;;;8.40;94.40;;;;;;10418125;28;20219;-82
2022/04/04 13:35:55;;;;;;;7.00;6.50;;;8.50;92.30;;;;;;10380439;28;20264;-84
2022/04/04 13:40:58;;;;;;;7.67;7.03;;;8.50;94.00;;;;;;10389169;28;20215;-84
2022/04/04 13:46:04;;;;;;;8.03;7.33;;;8.60;93.00;;;;;;10400403;28;20206;-84
2022/04/04 13:51:06;;;;;;;7.90;7.30;;;8.70;92.40;;;;;;10408604;28;20210;-84
2022/04/04 13:56:19;;;;;;;7.43;6.83;;;8.90;90.90;;;;;;10392981;28;20197;-84
2022/04/04 14:01:24;;;;;;;7.90;7.20;;;8.90;90.70;;;;;;10378524;28;20217;-83
2022/04/04 14:06:26;;;;;;;7.20;6.60;;;9.10;91.90;;;;;;10366837;28;20313;-83
2022/04/04 14:11:30;;;;;;;6.93;6.23;;;9.20;87.70;;;;;;10388391;28;20218;-82
2022/04/04 14:16:33;;;;;;;7.13;6.60;;;9.10;91.00;;;;;;10369422;28;20685;-83
2022/04/04 14:21:35;;;;;;;8.17;7.43;;;9.10;90.90;;;;;;10370114;28;20654;-84
2022/04/04 14:26:38;;;;;;;6.77;6.20;;;9.00;91.70;;;;;;10375695;28;20201;-84
2022/04/04 14:31:41;;;;;;;7.73;7.03;;;9.20;89.00;;;;;;10394065;28;20229;-83
2022/04/04 14:36:43;;;;;;;7.70;6.80;;;9.20;90.80;;;;;;10400886;28;20200;-84
2022/04/04 14:41:48;;;;;;;7.77;7.07;;;9.20;91.10;;;;;;10392304;28;20225;-84
2022/04/04 14:46:51;;;;;;;8.13;7.20;;;9.30;90.10;;;;;;10391631;28;20202;-84
2022/04/04 14:51:53;;;;;;;7.67;6.97;;;9.50;87.30;;;;;;10390098;28;20547;-84
2022/04/04 14:56:58;;;;;;;8.40;7.60;;;9.60;87.00;;;;;;10370949;28;20206;-83
2022/04/04 15:02:00;;;;;;;8.27;7.47;;;9.70;87.80;;;;;;10365344;28;20877;-83
2022/04/04 15:07:02;;;;;;;7.87;7.13;;;9.70;87.70;;;;;;10375776;28;20671;-83
2022/04/04 15:12:08;;;;;;;7.80;7.10;;;9.80;88.30;;;;;;10396193;28;20214;-83
2022/04/04 15:17:10;;;;;;;7.50;6.73;;;9.80;88.30;;;;;;10408335;28;20201;-83
2022/04/04 15:22:12;;;;;;;7.30;6.70;;;9.90;85.10;;;;;;10411373;23;20409;-82
2022/04/04 15:27:16;;;;;;;7.80;7.10;;;9.90;88.70;;;;;;10435857;28;20198;-81
2022/04/04 15:32:19;;;;;;;6.87;6.20;;;10.00;79.40;;;;;;10413973;28;20214;-80
2022/04/04 15:37:21;;;;;;;7.10;6.40;;;9.90;86.40;;;;;;10407750;28;20289;-80
2022/04/04 15:42:24;;;;;;;7.63;6.93;;;10.00;84.80;;;;;;10412088;28;20324;-80
2022/04/04 15:47:26;;;;;;;7.43;6.77;;;9.90;87.60;;;;;;10416667;28;20263;-80
2022/04/04 15:52:29;;;;;;;7.00;6.40;;;9.90;90.60;;;;;;10415052;28;20701;-80
2022/04/04 15:57:32;;;;;;;7.20;6.33;;;9.90;91.30;;;;;;10411381;28;20205;-80
2022/04/04 16:02:35;;;;;;;6.60;5.97;;;9.90;91.50;;;;;;10402008;28;20273;-82
2022/04/04 16:07:37;;;;;;;5.83;5.33;;;9.90;89.40;;;;;;10408261;28;20309;-81
2022/04/04 16:12:41;;;;;;;7.47;6.53;;;9.80;91.30;;;;;;10417680;28;20218;-82
2022/04/04 16:17:43;;;;;;;6.63;6.03;;;9.70;92.40;;;;;;10403153;28;20223;-79
2022/04/04 16:22:45;;;;;;;6.93;6.40;;;9.70;89.80;;;;;;10423699;28;20221;-79
2022/04/04 16:27:49;;;;;;;7.23;6.63;;;9.60;91.50;;;;;;10415154;28;20202;-78
2022/04/04 16:32:51;;;;;;;4.90;4.60;;;9.60;86.70;;;;;;10404061;28;20252;-79
2022/04/04 16:37:53;;;;;;;7.13;6.33;;;9.50;90.80;;;;;;10428558;28;20229;-79
2022/04/04 16:42:57;;;;;;;7.00;6.50;;;9.40;91.40;;;;;;10428563;28;20213;-80
2022/04/04 16:48:00;;;;;;;6.67;6.17;;;9.40;92.60;;;;;;10449818;28;20203;-79
2022/04/04 16:53:03;;;;;;;5.67;5.27;;;9.30;92.00;;;;;;10434186;28;20681;-79
2022/04/04 16:58:06;;;;;;;7.33;6.73;;;9.30;93.10;;;;;;10416572;28;20198;-79
2022/04/04 17:03:09;;;;;;;6.80;6.20;;;9.30;94.20;;;;;;10432493;28;20239;-80
2022/04/04 17:08:12;;;;;;;8.30;6.33;;;9.30;95.30;;;;;;10428522;28;20513;-79
2022/04/04 17:13:15;;;;;;;7.77;7.07;;;9.30;93.00;;;;;;10439010;28;20221;-79
2022/04/04 17:18:17;;;;;;;7.60;6.77;;;9.30;94.90;;;;;;10434579;28;20202;-80
2022/04/04 17:23:20;;;;;;;7.10;6.53;;;9.20;94.40;;;;;;10432131;28;20252;-80
2022/04/04 17:28:26;;;;;;;8.40;7.60;;;9.20;96.50;;;;;;10428999;28;20204;-79
2022/04/04 17:33:30;;;;;;;6.77;6.10;;;9.20;97.60;;;;;;10423319;28;20260;-79
2022/04/04 17:38:32;;;;;;;6.87;6.37;;;9.20;97.20;;;;;;10429669;28;20645;-78
2022/04/04 17:43:36;;;;;;;6.23;5.73;;;9.20;94.40;;;;;;10414447;28;20233;-79
2022/04/04 17:48:38;;;;;;;7.20;6.60;;;9.10;95.20;;;;;;10421744;28;20198;-79
2022/04/04 17:53:40;;;;;;;6.93;6.40;;;9.10;92.30;;;;;;10405349;28;20590;-78
2022/04/04 17:58:45;;;;;;;7.20;6.60;;;9.10;92.30;;;;;;10415183;28;20206;-78
2022/04/04 18:03:47;;;;;;;8.10;7.40;;;9.00;92.00;;;;;;10424887;28;20249;-79
2022/04/04 18:08:50;;;;;;;7.83;7.10;;;9.00;90.30;;;;;;10417141;28;20650;-79
2022/04/04 18:13:55;;;;;;;7.27;6.57;;;8.90;90.70;;;;;;10407821;28;20245;-79
2022/04/04 18:18:57;;;;;;;6.27;5.77;;;8.90;93.30;;;;;;10413389;28;20205;-79
2022/04/04 18:24:00;;;;;;;7.37;6.40;;;8.80;92.50;;;;;;10408056;28;20657;-79
2022/04/04 18:29:05;;;;;;;5.83;5.43;;;8.80;94.70;;;;;;10411701;28;20200;-79
2022/04/04 18:34:08;;;;;;;7.50;6.90;;;8.80;95.50;;;;;;10417591;28;20266;-79
2022/04/04 18:39:11;;;;;;;6.80;6.30;;;8.80;95.30;;;;;;10418636;28;20840;-78
2022/04/04 18:44:15;;;;;;;7.10;6.40;;;8.80;95.20;;;;;;10417214;28;20230;-79
2022/04/04 18:49:17;;;;;;;7.80;7.10;;;8.90;94.00;;;;;;10413093;28;20202;-79
2022/04/04 18:54:20;;;;;;;7.77;7.13;;;8.80;91.40;;;;;;10407563;28;20231;-79
2022/04/04 18:59:23;;;;;;;8.50;7.80;;;8.70;92.90;;;;;;10410886;28;20204;-79
2022/04/04 19:04:25;;;;;;;9.13;8.27;;;8.60;95.00;;;;;;10408013;28;20260;-79
2022/04/04 19:09:27;;;;;;;7.37;6.80;;;8.60;95.70;;;;;;10411196;28;20202;-80
2022/04/04 19:14:31;;;;;;;7.90;7.23;;;8.60;94.20;;;;;;10416918;28;20222;-80
2022/04/04 19:19:33;;;;;;;7.53;6.93;;;8.60;95.50;;;;;;10425255;28;20208;-80
2022/04/04 19:24:36;;;;;;;7.37;6.77;;;8.60;95.10;;;;;;10420195;28;20231;-80
2022/04/04 19:29:40;;;;;;;8.30;7.50;;;8.60;96.30;;;;;;10406930;28;20253;-81
2022/04/04 19:34:42;;;;;;;8.87;8.00;;;8.60;94.00;;;;;;10411707;28;20268;-80
2022/04/04 19:39:44;;;;;;;7.93;7.23;;;8.70;94.20;;;;;;10412046;28;20240;-80
2022/04/04 19:44:52;;;;;;;8.57;7.10;;;8.70;93.80;;;;;;10403825;28;20221;-80
2022/04/04 19:49:54;;;;;;;8.00;7.30;;;8.60;96.40;;;;;;10422066;28;20205;-80
2022/04/04 19:54:57;;;;;;;8.00;7.40;;;8.70;92.30;;;;;;10428290;28;20225;-80
2022/04/04 20:00:00;;;;;;;8.00;7.40;;;8.60;93.50;;;;;;10413500;28;20202;-80
2022/04/04 20:05:03;;;;;;;8.10;7.47;;;8.50;95.20;;;;;;10415631;28;20217;-81
2022/04/04 20:10:06;;;;;;;8.70;7.90;;;8.60;93.90;;;;;;10415740;28;20209;-80
2022/04/04 20:15:11;;;;;;;8.43;7.63;;;8.50;94.60;;;;;;10420407;28;20814;-79
2022/04/04 20:20:13;;;;;;;8.83;8.10;;;8.60;93.40;;;;;;10430482;28;20673;-79
2022/04/04 20:25:16;;;;;;;8.50;7.83;;;8.50;93.50;;;;;;10417289;28;20224;-79
2022/04/04 20:30:21;;;;;;;9.10;8.37;;;8.50;93.60;;;;;;10428396;28;20304;-80
2022/04/04 20:35:24;;;;;;;8.97;8.17;;;8.50;94.30;;;;;;10416582;28;20213;-79
2022/04/04 20:40:27;;;;;;;9.70;8.80;;;8.50;94.90;;;;;;10414665;28;20229;-81
2022/04/04 20:45:31;;;;;;;9.47;8.77;;;8.50;93.80;;;;;;10427853;28;20225;-79
2022/04/04 20:50:34;;;;;;;9.07;8.30;;;8.50;95.10;;;;;;10418206;28;20229;-79
2022/04/04 20:55:36;;;;;;;10.60;9.60;;;8.40;94.90;;;;;;10418766;28;20257;-79
2022/04/04 21:00:40;;;;;;;9.07;8.27;;;8.40;94.80;;;;;;10409784;28;20308;-79
2022/04/04 21:05:47;;;;;;;11.77;10.40;;;8.40;95.80;;;;;;10425305;28;20245;-80
2022/04/04 21:10:51;;;;;;;10.90;9.90;;;8.50;94.10;;;;;;10429026;28;20224;-79
2022/04/04 21:15:59;;;;;;;9.73;8.83;;;8.40;95.20;;;;;;10427503;28;21083;-80
2022/04/04 21:21:09;;;;;;;9.17;8.37;;;8.40;94.90;;;;;;10435228;28;20315;-80
2022/04/04 21:26:15;;;;;;;11.80;9.10;;;8.40;95.80;;;;;;10428888;28;20719;-79
2022/04/04 21:31:19;;;;;;;10.70;9.67;;;8.40;95.30;;;;;;10412188;28;20681;-80
2022/04/04 21:36:23;;;;;;;9.50;8.70;;;8.40;97.10;;;;;;10417539;28;20197;-80
2022/04/04 21:41:26;;;;;;;9.37;8.47;;;8.40;96.80;;;;;;10441778;28;20229;-79
2022/04/04 21:46:34;;;;;;;8.83;8.13;;;8.40;96.30;;;;;;10420078;28;20217;-79
2022/04/04 21:51:42;;;;;;;10.10;9.27;;;8.40;93.60;;;;;;10420749;28;20240;-79
2022/04/04 21:56:56;;;;;;;9.30;8.50;;;8.40;94.20;;;;;;10430550;28;20598;-79
2022/04/04 22:02:03;;;;;;;10.07;8.83;;;8.40;95.80;;;;;;10418378;28;20217;-79
2022/04/04 22:07:05;;;;;;;9.70;8.70;;;8.40;96.10;;;;;;10418380;28;20202;-79
2022/04/04 22:12:38;;;;;;;8.97;8.17;;;8.30;93.20;;;;;;10414774;28;20228;-79
2022/04/04 22:18:02;;;;;;;8.93;8.23;;;8.30;94.40;;;;;;10382052;28;20214;-79
2022/04/04 22:23:04;;;;;;;6.57;6.00;;;8.20;96.40;;;;;;10374354;28;20226;-79
2022/04/04 22:28:24;;;;;;;8.23;7.53;;;8.30;92.50;;;;;;10381616;28;20253;-79
2022/04/04 22:33:28;;;;;;;9.90;9.00;;;8.10;95.00;;;;;;10379613;28;20217;-79
2022/04/04 22:38:30;;;;;;;9.53;8.63;;;8.10;95.60;;;;;;10360571;28;20256;-80
2022/04/04 22:43:32;;;;;;;9.60;8.80;;;8.00;96.60;;;;;;10373267;28;20644;-79
2022/04/04 22:48:35;;;;;;;9.20;8.40;;;8.00;96.60;;;;;;10375638;28;20191;-79
2022/04/04 22:53:38;;;;;;;9.53;8.73;;;8.10;94.20;;;;;;10373857;28;20240;-79
2022/04/04 22:58:40;;;;;;;10.60;8.60;;;7.90;95.60;;;;;;10374649;28;20198;-79
2022/04/04 23:03:43;;;;;;;8.50;7.70;;;7.90;94.70;;;;;;10385944;28;20702;-79
2022/04/04 23:08:46;;;;;;;8.97;8.20;;;7.90;94.90;;;;;;10391894;28;20201;-79
2022/04/04 23:13:48;;;;;;;9.27;8.47;;;7.90;96.60;;;;;;10384519;28;20631;-79
2022/04/04 23:18:51;;;;;;;9.03;8.33;;;7.90;94.80;;;;;;10378231;28;20202;-79
2022/04/04 23:23:53;;;;;;;12.83;8.87;;;7.90;94.50;;;;;;10383731;28;20222;-79
2022/04/04 23:28:56;;;;;;;9.70;8.70;;;7.90;95.50;;;;;;10388140;28;20642;-79
2022/04/04 23:33:59;;;;;;;8.90;8.20;;;7.90;95.80;;;;;;10389731;28;20269;-79
2022/04/04 23:39:01;;;;;;;9.30;8.50;;;7.90;95.90;;;;;;10388234;28;20226;-79
2022/04/04 23:44:04;;;;;;;8.20;7.43;;;7.90;94.40;;;;;;10378991;28;20264;-80
2022/04/04 23:49:08;;;;;;;9.00;8.30;;;7.80;94.00;;;;;;10387749;28;20204;-79
2022/04/04 23:54:10;;;;;;;9.27;8.47;;;7.70;96.00;;;;;;10394638;28;20297;-80
2022/04/04 23:59:12;;;;;;;9.77;8.87;;;7.70;96.40;;;;;;10404822;28;20631;-80
